GAYNJ EGLA-EGBP
Flight info
| Callsign | GAYNJ |
|---|---|
| Flight time | 1h 10m |
| Altitude | 3000 |
| Route | 511201N0041221W 511932N0033916W 512232N0030707W 513640N0023837W 513854N0021556W |
| Aircraft | P28A/L-SDFRY/C |
Departure
| Time | 2026-04-26 15:08 |
|---|---|
| Airport | Bodmin Airfield (EGLA) |
Arrival
| Time | 2026-04-26 16:18 |
|---|---|
| Airport | Cotswold Airport (EGBP) |
| Time | Latitude | Longitude | Altitude | Speed | Heading |
|---|---|---|---|---|---|
| 2026-04-26 15:00 | 50.50001 | -4.66481 | 641 ft | 0 kts | 116° |
| 2026-04-26 15:04 | 50.49993 | -4.66476 | 640 ft | 0 kts | 185° |
| 2026-04-26 15:04 | 50.49964 | -4.66471 | 641 ft | 9 kts | 158° |
| 2026-04-26 15:05 | 50.49925 | -4.66417 | 640 ft | 5 kts | 127° |
| 2026-04-26 15:05 | 50.49921 | -4.66414 | 640 ft | 1 kts | 168° |
| 2026-04-26 15:05 | 50.49918 | -4.66414 | 641 ft | 0 kts | 199° |
| 2026-04-26 15:06 | 50.49919 | -4.66414 | 641 ft | 0 kts | 202° |
| 2026-04-26 15:06 | 50.49884 | -4.66351 | 637 ft | 17 kts | 129° |
| 2026-04-26 15:06 | 50.49845 | -4.66298 | 637 ft | 0 kts | 187° |
| 2026-04-26 15:06 | 50.49834 | -4.66327 | 636 ft | 13 kts | 283° |
| 2026-04-26 15:07 | 50.50265 | -4.67163 | 691 ft | 75 kts | 302° |
| 2026-04-26 15:07 | 50.50531 | -4.67895 | 830 ft | 80 kts | 291° |
| 2026-04-26 15:07 | 50.50744 | -4.68722 | 963 ft | 87 kts | 292° |
| 2026-04-26 15:08 | 50.51021 | -4.69583 | 1111 ft | 90 kts | 305° |
| 2026-04-26 15:08 | 50.51573 | -4.70015 | 1251 ft | 93 kts | 354° |
| 2026-04-26 15:08 | 50.52182 | -4.69563 | 1371 ft | 108 kts | 39° |
| 2026-04-26 15:08 | 50.52805 | -4.68732 | 1448 ft | 121 kts | 39° |
| 2026-04-26 15:09 | 50.53445 | -4.67817 | 1574 ft | 126 kts | 44° |
| 2026-04-26 15:09 | 50.54041 | -4.66807 | 1806 ft | 119 kts | 47° |
| 2026-04-26 15:09 | 50.54582 | -4.65919 | 2118 ft | 111 kts | 44° |
| 2026-04-26 15:09 | 50.55057 | -4.64953 | 2327 ft | 112 kts | 52° |
| 2026-04-26 15:10 | 50.55562 | -4.64029 | 2552 ft | 111 kts | 46° |
| 2026-04-26 15:10 | 50.55929 | -4.63443 | 2699 ft | 111 kts | 45° |
| 2026-04-26 15:10 | 50.56644 | -4.62303 | 2984 ft | 110 kts | 43° |
| 2026-04-26 15:10 | 50.57176 | -4.61436 | 3195 ft | 110 kts | 43° |
| 2026-04-26 15:11 | 50.57707 | -4.60568 | 3406 ft | 110 kts | 44° |
| 2026-04-26 15:11 | 50.58239 | -4.59703 | 3604 ft | 110 kts | 44° |
| 2026-04-26 15:11 | 50.58805 | -4.58806 | 3642 ft | 124 kts | 44° |
| 2026-04-26 15:11 | 50.59469 | -4.57792 | 3505 ft | 144 kts | 43° |
| 2026-04-26 15:12 | 50.60198 | -4.56654 | 3448 ft | 146 kts | 45° |
| 2026-04-26 15:12 | 50.60938 | -4.55567 | 3461 ft | 146 kts | 40° |
| 2026-04-26 15:12 | 50.61702 | -4.54508 | 3406 ft | 149 kts | 51° |
| 2026-04-26 15:12 | 50.62117 | -4.53009 | 3373 ft | 149 kts | 69° |
| 2026-04-26 15:13 | 50.62506 | -4.51501 | 3344 ft | 149 kts | 67° |
| 2026-04-26 15:13 | 50.62900 | -4.49995 | 3324 ft | 148 kts | 68° |
| 2026-04-26 15:13 | 50.63285 | -4.48510 | 3311 ft | 145 kts | 68° |
| 2026-04-26 15:13 | 50.63737 | -4.47100 | 3262 ft | 144 kts | 56° |
| 2026-04-26 15:14 | 50.64333 | -4.45836 | 3233 ft | 144 kts | 53° |
| 2026-04-26 15:14 | 50.64924 | -4.44562 | 3224 ft | 144 kts | 53° |
| 2026-04-26 15:14 | 50.65510 | -4.43285 | 3184 ft | 144 kts | 54° |
| 2026-04-26 15:14 | 50.66097 | -4.42007 | 3150 ft | 143 kts | 53° |
| 2026-04-26 15:15 | 50.66675 | -4.40753 | 3111 ft | 140 kts | 54° |
| 2026-04-26 15:15 | 50.67231 | -4.39541 | 3091 ft | 139 kts | 54° |
| 2026-04-26 15:15 | 50.67813 | -4.38285 | 3038 ft | 138 kts | 53° |
| 2026-04-26 15:15 | 50.68378 | -4.37057 | 2990 ft | 138 kts | 54° |
| 2026-04-26 15:16 | 50.68945 | -4.35835 | 2955 ft | 138 kts | 53° |
| 2026-04-26 15:16 | 50.69508 | -4.34613 | 2916 ft | 138 kts | 54° |
| 2026-04-26 15:16 | 50.70071 | -4.33391 | 2878 ft | 138 kts | 53° |
| 2026-04-26 15:16 | 50.70630 | -4.32166 | 2873 ft | 138 kts | 54° |
| 2026-04-26 15:17 | 50.71195 | -4.30944 | 2843 ft | 138 kts | 53° |
| 2026-04-26 15:17 | 50.71566 | -4.30138 | 2865 ft | 135 kts | 53° |
| 2026-04-26 15:17 | 50.72306 | -4.28580 | 2895 ft | 134 kts | 53° |
| 2026-04-26 15:17 | 50.72838 | -4.27378 | 2900 ft | 133 kts | 55° |
| 2026-04-26 15:18 | 50.73384 | -4.26179 | 2881 ft | 134 kts | 53° |
| 2026-04-26 15:18 | 50.73938 | -4.24989 | 2874 ft | 135 kts | 53° |
| 2026-04-26 15:18 | 50.74487 | -4.23785 | 2858 ft | 135 kts | 54° |
| 2026-04-26 15:18 | 50.75038 | -4.22586 | 2848 ft | 135 kts | 54° |
| 2026-04-26 15:19 | 50.75588 | -4.21384 | 2837 ft | 135 kts | 54° |
| 2026-04-26 15:19 | 50.76144 | -4.20182 | 2844 ft | 138 kts | 54° |
| 2026-04-26 15:19 | 50.76713 | -4.18941 | 2856 ft | 140 kts | 53° |
| 2026-04-26 15:19 | 50.77288 | -4.17684 | 2849 ft | 142 kts | 53° |
| 2026-04-26 15:20 | 50.77868 | -4.16419 | 2884 ft | 142 kts | 54° |
| 2026-04-26 15:20 | 50.78450 | -4.15157 | 2883 ft | 142 kts | 53° |
| 2026-04-26 15:20 | 50.79030 | -4.13890 | 2864 ft | 142 kts | 54° |
| 2026-04-26 15:20 | 50.79610 | -4.12621 | 2860 ft | 142 kts | 54° |
| 2026-04-26 15:21 | 50.80191 | -4.11351 | 2858 ft | 142 kts | 53° |
| 2026-04-26 15:21 | 50.80772 | -4.10086 | 2843 ft | 143 kts | 54° |
| 2026-04-26 15:21 | 50.81353 | -4.08816 | 2834 ft | 143 kts | 54° |
| 2026-04-26 15:21 | 50.81941 | -4.07539 | 2863 ft | 143 kts | 53° |
| 2026-04-26 15:22 | 50.82517 | -4.06281 | 2897 ft | 143 kts | 54° |
| 2026-04-26 15:22 | 50.83098 | -4.05007 | 2914 ft | 143 kts | 53° |
| 2026-04-26 15:22 | 50.83685 | -4.03718 | 2907 ft | 143 kts | 54° |
| 2026-04-26 15:22 | 50.84259 | -4.02461 | 2913 ft | 143 kts | 53° |
| 2026-04-26 15:23 | 50.84840 | -4.01191 | 2894 ft | 143 kts | 54° |
| 2026-04-26 15:23 | 50.85426 | -3.99924 | 2888 ft | 142 kts | 54° |
| 2026-04-26 15:23 | 50.86004 | -3.98653 | 2874 ft | 142 kts | 53° |
| 2026-04-26 15:23 | 50.86587 | -3.97383 | 2886 ft | 142 kts | 54° |
| 2026-04-26 15:24 | 50.87167 | -3.96113 | 2900 ft | 142 kts | 53° |
| 2026-04-26 15:24 | 50.87746 | -3.94840 | 2894 ft | 142 kts | 54° |
| 2026-04-26 15:24 | 50.88326 | -3.93568 | 2877 ft | 142 kts | 54° |
| 2026-04-26 15:24 | 50.88906 | -3.92294 | 2884 ft | 142 kts | 54° |
| 2026-04-26 15:25 | 50.89488 | -3.91022 | 2872 ft | 142 kts | 54° |
| 2026-04-26 15:25 | 50.89880 | -3.90162 | 2859 ft | 142 kts | 54° |
| 2026-04-26 15:25 | 50.90647 | -3.88475 | 2876 ft | 143 kts | 54° |
| 2026-04-26 15:25 | 50.91228 | -3.87202 | 2881 ft | 143 kts | 54° |
| 2026-04-26 15:26 | 50.91809 | -3.85925 | 2888 ft | 143 kts | 53° |
| 2026-04-26 15:26 | 50.92392 | -3.84656 | 2879 ft | 143 kts | 54° |
| 2026-04-26 15:26 | 50.92973 | -3.83383 | 2895 ft | 142 kts | 54° |
| 2026-04-26 15:26 | 50.93552 | -3.82112 | 2897 ft | 143 kts | 54° |
| 2026-04-26 15:27 | 50.94132 | -3.80834 | 2929 ft | 143 kts | 54° |
| 2026-04-26 15:27 | 50.94710 | -3.79560 | 2942 ft | 143 kts | 53° |
| 2026-04-26 15:27 | 50.95292 | -3.78285 | 2938 ft | 142 kts | 54° |
| 2026-04-26 15:27 | 50.95872 | -3.77010 | 2926 ft | 142 kts | 54° |
| 2026-04-26 15:28 | 50.96452 | -3.75737 | 2927 ft | 142 kts | 54° |
| 2026-04-26 15:28 | 50.97031 | -3.74464 | 2916 ft | 142 kts | 54° |
| 2026-04-26 15:28 | 50.97611 | -3.73189 | 2913 ft | 143 kts | 53° |
| 2026-04-26 15:28 | 50.98190 | -3.71920 | 2929 ft | 142 kts | 54° |
| 2026-04-26 15:29 | 50.98764 | -3.70653 | 2921 ft | 141 kts | 54° |
| 2026-04-26 15:29 | 50.99338 | -3.69391 | 2904 ft | 141 kts | 54° |
| 2026-04-26 15:29 | 51.00484 | -3.66866 | 2875 ft | 141 kts | 54° |
| 2026-04-26 15:30 | 51.01630 | -3.64342 | 2844 ft | 141 kts | 54° |
| 2026-04-26 15:30 | 51.02202 | -3.63080 | 2827 ft | 141 kts | 54° |
| 2026-04-26 15:30 | 51.02775 | -3.61815 | 2811 ft | 141 kts | 53° |
| 2026-04-26 15:31 | 51.03347 | -3.60561 | 2806 ft | 141 kts | 54° |
| 2026-04-26 15:31 | 51.04492 | -3.58029 | 2780 ft | 141 kts | 54° |
| 2026-04-26 15:31 | 51.05064 | -3.56767 | 2764 ft | 141 kts | 54° |
| 2026-04-26 15:32 | 51.05823 | -3.55095 | 2741 ft | 141 kts | 54° |
| 2026-04-26 15:32 | 51.06780 | -3.52975 | 2712 ft | 141 kts | 54° |
| 2026-04-26 15:32 | 51.07303 | -3.51661 | 2697 ft | 142 kts | 66° |
| 2026-04-26 15:33 | 51.07614 | -3.50172 | 2709 ft | 141 kts | 72° |
| 2026-04-26 15:33 | 51.07934 | -3.48696 | 2698 ft | 141 kts | 71° |
| 2026-04-26 15:33 | 51.08252 | -3.47221 | 2680 ft | 141 kts | 71° |
| 2026-04-26 15:33 | 51.08570 | -3.45746 | 2666 ft | 141 kts | 71° |
| 2026-04-26 15:34 | 51.08889 | -3.44270 | 2646 ft | 141 kts | 71° |
| 2026-04-26 15:34 | 51.09207 | -3.42796 | 2631 ft | 141 kts | 71° |
| 2026-04-26 15:34 | 51.09418 | -3.41817 | 2623 ft | 141 kts | 71° |
| 2026-04-26 15:34 | 51.09839 | -3.39863 | 2606 ft | 141 kts | 71° |
| 2026-04-26 15:35 | 51.10043 | -3.38863 | 2596 ft | 141 kts | 73° |
| 2026-04-26 15:35 | 51.10398 | -3.36873 | 2575 ft | 141 kts | 74° |
| 2026-04-26 15:35 | 51.10668 | -3.35374 | 2561 ft | 141 kts | 74° |
| 2026-04-26 15:35 | 51.10938 | -3.33874 | 2547 ft | 141 kts | 74° |
| 2026-04-26 15:36 | 51.11120 | -3.32858 | 2532 ft | 141 kts | 74° |
| 2026-04-26 15:36 | 51.11389 | -3.31359 | 2515 ft | 141 kts | 74° |
| 2026-04-26 15:36 | 51.11658 | -3.29857 | 2515 ft | 141 kts | 74° |
| 2026-04-26 15:36 | 51.11922 | -3.28371 | 2510 ft | 141 kts | 74° |
| 2026-04-26 15:37 | 51.12193 | -3.26871 | 2514 ft | 141 kts | 74° |
| 2026-04-26 15:37 | 51.12462 | -3.25371 | 2507 ft | 141 kts | 74° |
| 2026-04-26 15:37 | 51.12730 | -3.23866 | 2503 ft | 141 kts | 74° |
| 2026-04-26 15:37 | 51.12998 | -3.22362 | 2511 ft | 141 kts | 74° |
| 2026-04-26 15:38 | 51.13267 | -3.20861 | 2507 ft | 141 kts | 74° |
| 2026-04-26 15:38 | 51.13536 | -3.19358 | 2486 ft | 141 kts | 74° |
| 2026-04-26 15:38 | 51.13804 | -3.17859 | 2468 ft | 141 kts | 74° |
| 2026-04-26 15:38 | 51.14073 | -3.16356 | 2449 ft | 141 kts | 74° |
| 2026-04-26 15:39 | 51.14403 | -3.14885 | 2427 ft | 141 kts | 69° |
| 2026-04-26 15:39 | 51.14752 | -3.13423 | 2430 ft | 141 kts | 69° |
| 2026-04-26 15:39 | 51.15101 | -3.11962 | 2434 ft | 141 kts | 69° |
| 2026-04-26 15:39 | 51.15331 | -3.10997 | 2436 ft | 141 kts | 69° |
| 2026-04-26 15:40 | 51.15793 | -3.09042 | 2427 ft | 141 kts | 69° |
| 2026-04-26 15:40 | 51.16144 | -3.07585 | 2418 ft | 141 kts | 69° |
| 2026-04-26 15:40 | 51.16492 | -3.06124 | 2408 ft | 141 kts | 69° |
| 2026-04-26 15:40 | 51.16885 | -3.04693 | 2400 ft | 141 kts | 62° |
| 2026-04-26 15:41 | 51.17362 | -3.03326 | 2387 ft | 141 kts | 61° |
| 2026-04-26 15:41 | 51.17831 | -3.01958 | 2387 ft | 141 kts | 61° |
| 2026-04-26 15:41 | 51.18298 | -3.00586 | 2386 ft | 141 kts | 62° |
| 2026-04-26 15:41 | 51.18767 | -2.99217 | 2378 ft | 141 kts | 61° |
| 2026-04-26 15:42 | 51.19241 | -2.97840 | 2388 ft | 142 kts | 61° |
| 2026-04-26 15:42 | 51.19716 | -2.96455 | 2394 ft | 143 kts | 61° |
| 2026-04-26 15:42 | 51.20192 | -2.95066 | 2403 ft | 143 kts | 61° |
| 2026-04-26 15:42 | 51.20669 | -2.93674 | 2411 ft | 143 kts | 61° |
| 2026-04-26 15:43 | 51.21136 | -2.92301 | 2419 ft | 143 kts | 61° |
| 2026-04-26 15:43 | 51.21613 | -2.90914 | 2419 ft | 143 kts | 61° |
| 2026-04-26 15:43 | 51.22564 | -2.88130 | 2461 ft | 143 kts | 61° |
| 2026-04-26 15:44 | 51.22966 | -2.86685 | 2434 ft | 144 kts | 76° |
| 2026-04-26 15:44 | 51.23075 | -2.83509 | 2423 ft | 143 kts | 88° |
| 2026-04-26 15:44 | 51.23111 | -2.81920 | 2417 ft | 143 kts | 88° |
| 2026-04-26 15:45 | 51.23178 | -2.78745 | 2399 ft | 143 kts | 88° |
| 2026-04-26 15:45 | 51.23211 | -2.77160 | 2391 ft | 143 kts | 88° |
| 2026-04-26 15:46 | 51.23280 | -2.73988 | 2388 ft | 143 kts | 88° |
| 2026-04-26 15:46 | 51.23312 | -2.72402 | 2387 ft | 143 kts | 88° |
| 2026-04-26 15:46 | 51.23343 | -2.70816 | 2380 ft | 143 kts | 88° |
| 2026-04-26 15:46 | 51.23367 | -2.69766 | 2375 ft | 143 kts | 88° |
| 2026-04-26 15:47 | 51.23411 | -2.67644 | 2368 ft | 143 kts | 88° |
| 2026-04-26 15:47 | 51.23476 | -2.64472 | 2383 ft | 143 kts | 89° |
| 2026-04-26 15:47 | 51.23604 | -2.62898 | 2371 ft | 143 kts | 78° |
| 2026-04-26 15:48 | 51.23795 | -2.61341 | 2364 ft | 143 kts | 79° |
| 2026-04-26 15:48 | 51.23986 | -2.59786 | 2353 ft | 143 kts | 78° |
| 2026-04-26 15:48 | 51.24307 | -2.58285 | 2344 ft | 143 kts | 69° |
| 2026-04-26 15:48 | 51.24642 | -2.56791 | 2333 ft | 143 kts | 70° |
| 2026-04-26 15:49 | 51.24976 | -2.55298 | 2334 ft | 143 kts | 70° |
| 2026-04-26 15:49 | 51.25312 | -2.53803 | 2340 ft | 143 kts | 70° |
| 2026-04-26 15:49 | 51.25769 | -2.52393 | 2348 ft | 143 kts | 58° |
| 2026-04-26 15:49 | 51.26318 | -2.51068 | 2375 ft | 143 kts | 56° |
| 2026-04-26 15:50 | 51.26864 | -2.49744 | 2376 ft | 143 kts | 56° |
| 2026-04-26 15:50 | 51.27404 | -2.48440 | 2379 ft | 143 kts | 56° |
| 2026-04-26 15:50 | 51.27950 | -2.47117 | 2399 ft | 143 kts | 56° |
| 2026-04-26 15:50 | 51.28488 | -2.45784 | 2425 ft | 143 kts | 58° |
| 2026-04-26 15:51 | 51.28990 | -2.44417 | 2429 ft | 143 kts | 59° |
| 2026-04-26 15:51 | 51.29480 | -2.43089 | 2427 ft | 143 kts | 60° |
| 2026-04-26 15:51 | 51.29998 | -2.41744 | 2491 ft | 141 kts | 60° |
| 2026-04-26 15:51 | 51.30528 | -2.40439 | 2578 ft | 139 kts | 60° |
| 2026-04-26 15:52 | 51.31065 | -2.39154 | 2597 ft | 140 kts | 59° |
| 2026-04-26 15:52 | 51.31623 | -2.37875 | 2629 ft | 141 kts | 55° |
| 2026-04-26 15:52 | 51.32315 | -2.36747 | 2608 ft | 143 kts | 48° |
| 2026-04-26 15:52 | 51.32766 | -2.35981 | 2606 ft | 143 kts | 51° |
| 2026-04-26 15:53 | 51.33659 | -2.34397 | 2633 ft | 143 kts | 51° |
| 2026-04-26 15:53 | 51.34324 | -2.33211 | 2651 ft | 143 kts | 51° |
| 2026-04-26 15:53 | 51.34978 | -2.32014 | 2679 ft | 143 kts | 51° |
| 2026-04-26 15:53 | 51.35634 | -2.30821 | 2725 ft | 143 kts | 51° |
| 2026-04-26 15:54 | 51.36297 | -2.29641 | 2700 ft | 143 kts | 51° |
| 2026-04-26 15:54 | 51.36962 | -2.28474 | 2678 ft | 139 kts | 52° |
| 2026-04-26 15:54 | 51.37612 | -2.27311 | 2639 ft | 141 kts | 51° |
| 2026-04-26 15:54 | 51.38271 | -2.26127 | 2636 ft | 143 kts | 51° |
| 2026-04-26 15:55 | 51.38931 | -2.24934 | 2657 ft | 143 kts | 51° |
| 2026-04-26 15:55 | 51.39592 | -2.23740 | 2656 ft | 143 kts | 51° |
| 2026-04-26 15:55 | 51.40251 | -2.22542 | 2697 ft | 144 kts | 51° |
| 2026-04-26 15:55 | 51.40910 | -2.21344 | 2790 ft | 143 kts | 51° |
| 2026-04-26 15:56 | 51.41573 | -2.20160 | 2821 ft | 143 kts | 51° |
| 2026-04-26 15:56 | 51.42234 | -2.18968 | 2835 ft | 143 kts | 51° |
| 2026-04-26 15:56 | 51.42898 | -2.17783 | 2858 ft | 143 kts | 51° |
| 2026-04-26 15:56 | 51.43551 | -2.16587 | 2889 ft | 143 kts | 51° |
| 2026-04-26 15:57 | 51.44206 | -2.15392 | 2945 ft | 143 kts | 51° |
| 2026-04-26 15:57 | 51.44861 | -2.14196 | 2980 ft | 143 kts | 52° |
| 2026-04-26 15:57 | 51.45587 | -2.13098 | 2970 ft | 144 kts | 43° |
| 2026-04-26 15:57 | 51.46094 | -2.12408 | 2973 ft | 144 kts | 44° |
| 2026-04-26 15:58 | 51.47120 | -2.11039 | 2955 ft | 144 kts | 40° |
| 2026-04-26 15:58 | 51.47929 | -2.10084 | 2968 ft | 144 kts | 39° |
| 2026-04-26 15:58 | 51.48726 | -2.09141 | 2981 ft | 144 kts | 39° |
| 2026-04-26 15:58 | 51.49538 | -2.08163 | 3009 ft | 144 kts | 40° |
| 2026-04-26 15:59 | 51.50331 | -2.07206 | 3071 ft | 144 kts | 39° |
| 2026-04-26 15:59 | 51.51185 | -2.06346 | 3105 ft | 146 kts | 29° |
| 2026-04-26 15:59 | 51.52095 | -2.05623 | 3092 ft | 146 kts | 29° |
| 2026-04-26 15:59 | 51.53003 | -2.04896 | 3103 ft | 146 kts | 29° |
| 2026-04-26 16:00 | 51.53969 | -2.04388 | 3091 ft | 146 kts | 17° |
| 2026-04-26 16:00 | 51.54949 | -2.03950 | 3079 ft | 147 kts | 16° |
| 2026-04-26 16:00 | 51.55989 | -2.03853 | 3068 ft | 148 kts | 1° |
| 2026-04-26 16:00 | 51.57014 | -2.03820 | 3094 ft | 147 kts | 3° |
| 2026-04-26 16:01 | 51.58011 | -2.03955 | 3060 ft | 149 kts | 341° |
| 2026-04-26 16:01 | 51.58721 | -2.05097 | 2961 ft | 146 kts | 292° |
| 2026-04-26 16:01 | 51.58742 | -2.06682 | 2913 ft | 138 kts | 259° |
| 2026-04-26 16:01 | 51.58622 | -2.08182 | 2928 ft | 134 kts | 262° |
| 2026-04-26 16:02 | 51.58453 | -2.09634 | 2880 ft | 132 kts | 244° |
| 2026-04-26 16:02 | 51.57757 | -2.10485 | 2780 ft | 130 kts | 192° |
| 2026-04-26 16:02 | 51.56920 | -2.10082 | 2672 ft | 131 kts | 140° |
| 2026-04-26 16:02 | 51.56640 | -2.09231 | 2618 ft | 134 kts | 105° |
| 2026-04-26 16:03 | 51.56823 | -2.07280 | 2573 ft | 131 kts | 81° |
| 2026-04-26 16:03 | 51.56998 | -2.05872 | 2561 ft | 130 kts | 82° |
| 2026-04-26 16:03 | 51.57181 | -2.04460 | 2543 ft | 129 kts | 81° |
| 2026-04-26 16:03 | 51.57359 | -2.03051 | 2526 ft | 129 kts | 81° |
| 2026-04-26 16:04 | 51.57536 | -2.01642 | 2518 ft | 128 kts | 82° |
| 2026-04-26 16:04 | 51.57714 | -2.00237 | 2525 ft | 128 kts | 81° |
| 2026-04-26 16:04 | 51.57969 | -1.98862 | 2482 ft | 132 kts | 63° |
| 2026-04-26 16:04 | 51.58770 | -1.98125 | 2377 ft | 141 kts | 9° |
| 2026-04-26 16:05 | 51.59672 | -1.98634 | 2275 ft | 141 kts | 318° |
| 2026-04-26 16:05 | 51.60013 | -2.00044 | 2166 ft | 137 kts | 269° |
| 2026-04-26 16:05 | 51.59905 | -2.01533 | 2203 ft | 132 kts | 261° |
| 2026-04-26 16:05 | 51.59818 | -2.02995 | 2176 ft | 130 kts | 262° |
| 2026-04-26 16:06 | 51.59707 | -2.04433 | 2156 ft | 129 kts | 261° |
| 2026-04-26 16:06 | 51.59616 | -2.05865 | 2138 ft | 128 kts | 262° |
| 2026-04-26 16:06 | 51.59525 | -2.07335 | 2107 ft | 137 kts | 261° |
| 2026-04-26 16:06 | 51.59410 | -2.08883 | 2104 ft | 141 kts | 258° |
| 2026-04-26 16:07 | 51.58852 | -2.10133 | 2018 ft | 142 kts | 212° |
| 2026-04-26 16:07 | 51.57901 | -2.10278 | 1981 ft | 142 kts | 165° |
| 2026-04-26 16:07 | 51.57197 | -2.09210 | 1955 ft | 145 kts | 118° |
| 2026-04-26 16:07 | 51.57177 | -2.07590 | 1923 ft | 149 kts | 81° |
| 2026-04-26 16:08 | 51.57407 | -2.05990 | 1965 ft | 144 kts | 80° |
| 2026-04-26 16:08 | 51.57538 | -2.04954 | 2060 ft | 138 kts | 81° |
| 2026-04-26 16:08 | 51.57789 | -2.02963 | 2168 ft | 140 kts | 80° |
| 2026-04-26 16:08 | 51.58006 | -2.01413 | 2185 ft | 144 kts | 81° |
| 2026-04-26 16:09 | 51.58227 | -1.99844 | 2228 ft | 144 kts | 80° |
| 2026-04-26 16:09 | 51.58473 | -1.98284 | 2194 ft | 146 kts | 72° |
| 2026-04-26 16:09 | 51.59202 | -1.97138 | 2118 ft | 154 kts | 26° |
| 2026-04-26 16:09 | 51.60261 | -1.97152 | 2027 ft | 157 kts | 340° |
| 2026-04-26 16:10 | 51.61016 | -1.98365 | 1965 ft | 156 kts | 294° |
| 2026-04-26 16:10 | 51.61086 | -2.00054 | 1926 ft | 151 kts | 261° |
| 2026-04-26 16:10 | 51.60963 | -2.01702 | 2040 ft | 144 kts | 261° |
| 2026-04-26 16:10 | 51.60858 | -2.03251 | 2253 ft | 135 kts | 261° |
| 2026-04-26 16:11 | 51.60768 | -2.04742 | 2395 ft | 133 kts | 261° |
| 2026-04-26 16:11 | 51.60678 | -2.06191 | 2597 ft | 132 kts | 261° |
| 2026-04-26 16:11 | 51.60593 | -2.07689 | 2694 ft | 136 kts | 261° |
| 2026-04-26 16:11 | 51.60853 | -2.09166 | 2718 ft | 146 kts | 305° |
| 2026-04-26 16:12 | 51.61765 | -2.09839 | 2733 ft | 150 kts | 358° |
| 2026-04-26 16:12 | 51.62676 | -2.09158 | 2782 ft | 147 kts | 48° |
| 2026-04-26 16:12 | 51.63605 | -2.06418 | 2783 ft | 135 kts | 78° |
| 2026-04-26 16:13 | 51.63825 | -2.04907 | 2493 ft | 140 kts | 80° |
| 2026-04-26 16:13 | 51.64010 | -2.03388 | 2363 ft | 136 kts | 82° |
| 2026-04-26 16:13 | 51.64139 | -2.01958 | 2073 ft | 121 kts | 87° |
| 2026-04-26 16:13 | 51.64181 | -2.00690 | 1833 ft | 109 kts | 92° |
| 2026-04-26 16:14 | 51.64168 | -1.99475 | 1706 ft | 107 kts | 95° |
| 2026-04-26 16:14 | 51.64302 | -1.98309 | 1573 ft | 108 kts | 64° |
| 2026-04-26 16:14 | 51.65696 | -1.97462 | 1317 ft | 110 kts | 7° |
| 2026-04-26 16:15 | 51.66411 | -1.97384 | 1231 ft | 93 kts | 358° |
| 2026-04-26 16:15 | 51.67016 | -1.97639 | 1109 ft | 83 kts | 339° |
| 2026-04-26 16:15 | 51.67353 | -1.97896 | 997 ft | 81 kts | 316° |
| 2026-04-26 16:16 | 51.67442 | -1.99811 | 738 ft | 80 kts | 250° |
| 2026-04-26 16:16 | 51.67343 | -2.00654 | 681 ft | 75 kts | 256° |
| 2026-04-26 16:16 | 51.67260 | -2.01425 | 652 ft | 69 kts | 245° |
| 2026-04-26 16:16 | 51.67175 | -2.02173 | 618 ft | 68 kts | 257° |
| 2026-04-26 16:17 | 51.67101 | -2.02905 | 609 ft | 67 kts | 251° |
| 2026-04-26 16:17 | 51.67047 | -2.03407 | 579 ft | 68 kts | 248° |
| 2026-04-26 16:17 | 51.66968 | -2.04162 | 473 ft | 68 kts | 250° |
| 2026-04-26 16:17 | 51.66895 | -2.04894 | 433 ft | 65 kts | 252° |
| 2026-04-26 16:18 | 51.66818 | -2.05565 | 435 ft | 51 kts | 260° |
| 2026-04-26 16:18 | 51.66839 | -2.06074 | 434 ft | 8 kts | 310° |
| 2026-04-26 16:19 | 51.66894 | -2.06206 | 434 ft | 0 kts | 305° |
| 2026-04-26 16:19 | 51.66914 | -2.06248 | 423 ft | 8 kts | 310° |
| 2026-04-26 16:19 | 51.66931 | -2.06352 | 428 ft | 3 kts | 116° |